sensor_id;sensor_type;location;lat;lon;timestamp;P1;durP1;ratioP1;P2;durP2;ratioP2
44728;SDS011;30457;53.590;9.922;2023-03-11T00:01:05;7.57;;;5.93;;
44728;SDS011;30457;53.590;9.922;2023-03-11T00:05:35;10.70;;;6.93;;
44728;SDS011;30457;53.590;9.922;2023-03-11T00:10:02;8.60;;;6.28;;
44728;SDS011;30457;53.590;9.922;2023-03-11T00:14:28;8.52;;;6.40;;
44728;SDS011;30457;53.590;9.922;2023-03-11T00:18:54;10.95;;;7.00;;
44728;SDS011;30457;53.590;9.922;2023-03-11T00:23:20;9.20;;;7.25;;
44728;SDS011;30457;53.590;9.922;2023-03-11T00:27:46;9.15;;;6.20;;
44728;SDS011;30457;53.590;9.922;2023-03-11T00:32:11;11.30;;;7.05;;
44728;SDS011;30457;53.590;9.922;2023-03-11T00:36:37;12.50;;;7.03;;
44728;SDS011;30457;53.590;9.922;2023-03-11T00:41:03;13.63;;;8.05;;
44728;SDS011;30457;53.590;9.922;2023-03-11T00:45:30;13.98;;;7.97;;
44728;SDS011;30457;53.590;9.922;2023-03-11T00:49:56;13.20;;;7.80;;
44728;SDS011;30457;53.590;9.922;2023-03-11T00:54:21;12.00;;;7.53;;
44728;SDS011;30457;53.590;9.922;2023-03-11T00:58:47;10.18;;;6.97;;
44728;SDS011;30457;53.590;9.922;2023-03-11T01:03:13;10.00;;;6.82;;
44728;SDS011;30457;53.590;9.922;2023-03-11T01:07:38;11.07;;;6.38;;
44728;SDS011;30457;53.590;9.922;2023-03-11T01:12:04;10.23;;;6.72;;
44728;SDS011;30457;53.590;9.922;2023-03-11T01:16:29;11.95;;;7.75;;
44728;SDS011;30457;53.590;9.922;2023-03-11T01:20:55;11.02;;;7.40;;
44728;SDS011;30457;53.590;9.922;2023-03-11T01:25:21;11.70;;;7.22;;
44728;SDS011;30457;53.590;9.922;2023-03-11T01:29:48;10.40;;;7.38;;
44728;SDS011;30457;53.590;9.922;2023-03-11T01:34:14;8.20;;;6.13;;
44728;SDS011;30457;53.590;9.922;2023-03-11T01:38:39;9.73;;;6.93;;
44728;SDS011;30457;53.590;9.922;2023-03-11T01:43:35;9.95;;;6.00;;
44728;SDS011;30457;53.590;9.922;2023-03-11T01:48:19;9.40;;;6.07;;
44728;SDS011;30457;53.590;9.922;2023-03-11T01:52:45;11.10;;;6.40;;
44728;SDS011;30457;53.590;9.922;2023-03-11T01:57:12;11.35;;;6.70;;
44728;SDS011;30457;53.590;9.922;2023-03-11T02:01:45;8.75;;;6.15;;
44728;SDS011;30457;53.590;9.922;2023-03-11T02:06:17;10.50;;;6.18;;
44728;SDS011;30457;53.590;9.922;2023-03-11T02:10:46;8.80;;;6.25;;
44728;SDS011;30457;53.590;9.922;2023-03-11T02:15:14;11.60;;;6.45;;
44728;SDS011;30457;53.590;9.922;2023-03-11T02:19:45;11.60;;;6.95;;
44728;SDS011;30457;53.590;9.922;2023-03-11T02:24:25;10.15;;;6.90;;
44728;SDS011;30457;53.590;9.922;2023-03-11T02:29:00;11.50;;;6.47;;
44728;SDS011;30457;53.590;9.922;2023-03-11T02:33:29;10.48;;;6.20;;
44728;SDS011;30457;53.590;9.922;2023-03-11T02:37:57;9.15;;;5.97;;
44728;SDS011;30457;53.590;9.922;2023-03-11T02:42:24;9.90;;;6.63;;
44728;SDS011;30457;53.590;9.922;2023-03-11T02:46:52;9.15;;;5.35;;
44728;SDS011;30457;53.590;9.922;2023-03-11T02:51:18;9.48;;;6.18;;
44728;SDS011;30457;53.590;9.922;2023-03-11T02:55:43;11.18;;;6.10;;
44728;SDS011;30457;53.590;9.922;2023-03-11T03:00:09;10.98;;;6.28;;
44728;SDS011;30457;53.590;9.922;2023-03-11T03:04:41;11.07;;;6.63;;
44728;SDS011;30457;53.590;9.922;2023-03-11T03:09:07;11.77;;;6.25;;
44728;SDS011;30457;53.590;9.922;2023-03-11T03:13:33;6.88;;;5.40;;
44728;SDS011;30457;53.590;9.922;2023-03-11T03:17:59;10.32;;;5.82;;
44728;SDS011;30457;53.590;9.922;2023-03-11T03:22:25;11.90;;;6.60;;
44728;SDS011;30457;53.590;9.922;2023-03-11T03:26:53;10.52;;;6.47;;
44728;SDS011;30457;53.590;9.922;2023-03-11T03:31:19;10.63;;;6.63;;
44728;SDS011;30457;53.590;9.922;2023-03-11T03:35:45;8.65;;;6.00;;
44728;SDS011;30457;53.590;9.922;2023-03-11T03:40:17;11.93;;;6.00;;
44728;SDS011;30457;53.590;9.922;2023-03-11T03:44:42;10.10;;;6.15;;
44728;SDS011;30457;53.590;9.922;2023-03-11T03:49:08;11.52;;;6.30;;
44728;SDS011;30457;53.590;9.922;2023-03-11T03:53:35;8.90;;;5.68;;
44728;SDS011;30457;53.590;9.922;2023-03-11T03:58:01;8.43;;;5.65;;
44728;SDS011;30457;53.590;9.922;2023-03-11T04:02:31;8.25;;;5.35;;
44728;SDS011;30457;53.590;9.922;2023-03-11T04:06:57;8.05;;;5.60;;
44728;SDS011;30457;53.590;9.922;2023-03-11T04:11:23;8.68;;;5.53;;
44728;SDS011;30457;53.590;9.922;2023-03-11T04:15:50;8.00;;;5.47;;
44728;SDS011;30457;53.590;9.922;2023-03-11T04:20:15;8.82;;;6.30;;
44728;SDS011;30457;53.590;9.922;2023-03-11T04:24:44;7.55;;;5.45;;
44728;SDS011;30457;53.590;9.922;2023-03-11T04:29:10;6.25;;;4.43;;
44728;SDS011;30457;53.590;9.922;2023-03-11T04:33:40;6.05;;;4.57;;
44728;SDS011;30457;53.590;9.922;2023-03-11T04:38:08;15.20;;;8.25;;
44728;SDS011;30457;53.590;9.922;2023-03-11T04:42:34;7.10;;;5.18;;
44728;SDS011;30457;53.590;9.922;2023-03-11T04:47:00;7.03;;;5.05;;
44728;SDS011;30457;53.590;9.922;2023-03-11T04:51:25;8.45;;;4.70;;
44728;SDS011;30457;53.590;9.922;2023-03-11T04:55:52;7.95;;;4.65;;
44728;SDS011;30457;53.590;9.922;2023-03-11T05:00:18;7.38;;;4.70;;
44728;SDS011;30457;53.590;9.922;2023-03-11T05:04:50;9.52;;;4.90;;
44728;SDS011;30457;53.590;9.922;2023-03-11T05:09:16;7.30;;;5.22;;
44728;SDS011;30457;53.590;9.922;2023-03-11T05:13:42;8.02;;;4.97;;
44728;SDS011;30457;53.590;9.922;2023-03-11T05:18:09;7.93;;;4.18;;
44728;SDS011;30457;53.590;9.922;2023-03-11T05:22:36;8.05;;;4.43;;
44728;SDS011;30457;53.590;9.922;2023-03-11T05:27:03;9.80;;;5.43;;
44728;SDS011;30457;53.590;9.922;2023-03-11T05:31:29;9.25;;;5.80;;
44728;SDS011;30457;53.590;9.922;2023-03-11T05:35:55;7.05;;;5.00;;
44728;SDS011;30457;53.590;9.922;2023-03-11T05:40:28;7.88;;;5.03;;
44728;SDS011;30457;53.590;9.922;2023-03-11T05:44:54;8.20;;;4.68;;
44728;SDS011;30457;53.590;9.922;2023-03-11T05:49:22;7.80;;;5.32;;
44728;SDS011;30457;53.590;9.922;2023-03-11T05:53:49;8.00;;;4.85;;
44728;SDS011;30457;53.590;9.922;2023-03-11T05:58:23;8.00;;;4.93;;
44728;SDS011;30457;53.590;9.922;2023-03-11T06:02:49;7.68;;;4.97;;
44728;SDS011;30457;53.590;9.922;2023-03-11T06:07:17;13.15;;;5.80;;
44728;SDS011;30457;53.590;9.922;2023-03-11T06:11:45;8.98;;;5.40;;
44728;SDS011;30457;53.590;9.922;2023-03-11T06:16:13;8.50;;;5.45;;
44728;SDS011;30457;53.590;9.922;2023-03-11T06:20:39;7.95;;;5.13;;
44728;SDS011;30457;53.590;9.922;2023-03-11T06:25:05;7.82;;;5.05;;
44728;SDS011;30457;53.590;9.922;2023-03-11T06:29:32;6.68;;;5.03;;
44728;SDS011;30457;53.590;9.922;2023-03-11T06:33:57;9.88;;;5.13;;
44728;SDS011;30457;53.590;9.922;2023-03-11T06:38:24;8.45;;;4.90;;
44728;SDS011;30457;53.590;9.922;2023-03-11T06:42:49;6.47;;;4.18;;
44728;SDS011;30457;53.590;9.922;2023-03-11T06:47:17;9.88;;;4.70;;
44728;SDS011;30457;53.590;9.922;2023-03-11T06:51:43;6.97;;;4.97;;
44728;SDS011;30457;53.590;9.922;2023-03-11T06:56:10;7.10;;;5.07;;
44728;SDS011;30457;53.590;9.922;2023-03-11T07:00:43;5.78;;;3.70;;
44728;SDS011;30457;53.590;9.922;2023-03-11T07:05:09;6.25;;;4.70;;
44728;SDS011;30457;53.590;9.922;2023-03-11T07:09:37;8.18;;;4.82;;
44728;SDS011;30457;53.590;9.922;2023-03-11T07:14:04;7.30;;;4.53;;
44728;SDS011;30457;53.590;9.922;2023-03-11T07:18:33;6.22;;;4.35;;
44728;SDS011;30457;53.590;9.922;2023-03-11T07:23:00;9.80;;;4.95;;
44728;SDS011;30457;53.590;9.922;2023-03-11T07:27:26;8.30;;;5.20;;
44728;SDS011;30457;53.590;9.922;2023-03-11T07:31:52;11.27;;;4.75;;
44728;SDS011;30457;53.590;9.922;2023-03-11T07:36:19;13.70;;;6.40;;
44728;SDS011;30457;53.590;9.922;2023-03-11T07:40:47;7.63;;;4.60;;
44728;SDS011;30457;53.590;9.922;2023-03-11T07:45:22;7.83;;;5.63;;
44728;SDS011;30457;53.590;9.922;2023-03-11T07:49:48;6.55;;;4.45;;
44728;SDS011;30457;53.590;9.922;2023-03-11T07:54:13;9.13;;;4.90;;
44728;SDS011;30457;53.590;9.922;2023-03-11T07:58:39;6.88;;;4.75;;
44728;SDS011;30457;53.590;9.922;2023-03-11T08:03:05;8.57;;;5.63;;
44728;SDS011;30457;53.590;9.922;2023-03-11T08:07:31;5.18;;;4.15;;
44728;SDS011;30457;53.590;9.922;2023-03-11T08:11:57;10.70;;;3.70;;
44728;SDS011;30457;53.590;9.922;2023-03-11T08:16:22;6.55;;;4.10;;
44728;SDS011;30457;53.590;9.922;2023-03-11T08:20:49;6.95;;;3.55;;
44728;SDS011;30457;53.590;9.922;2023-03-11T08:25:15;5.45;;;3.72;;
44728;SDS011;30457;53.590;9.922;2023-03-11T08:29:40;7.18;;;3.88;;
44728;SDS011;30457;53.590;9.922;2023-03-11T08:34:08;7.53;;;3.85;;
44728;SDS011;30457;53.590;9.922;2023-03-11T08:38:34;4.28;;;3.03;;
44728;SDS011;30457;53.590;9.922;2023-03-11T08:43:00;4.50;;;2.88;;
44728;SDS011;30457;53.590;9.922;2023-03-11T08:47:25;4.20;;;3.13;;
44728;SDS011;30457;53.590;9.922;2023-03-11T08:51:51;4.13;;;2.83;;
44728;SDS011;30457;53.590;9.922;2023-03-11T08:56:17;4.47;;;2.80;;
44728;SDS011;30457;53.590;9.922;2023-03-11T09:00:43;3.97;;;2.40;;
44728;SDS011;30457;53.590;9.922;2023-03-11T09:05:09;4.78;;;2.75;;
44728;SDS011;30457;53.590;9.922;2023-03-11T09:09:34;4.43;;;2.58;;
44728;SDS011;30457;53.590;9.922;2023-03-11T09:14:00;4.63;;;2.60;;
44728;SDS011;30457;53.590;9.922;2023-03-11T09:18:25;4.68;;;2.15;;
44728;SDS011;30457;53.590;9.922;2023-03-11T09:22:53;5.20;;;2.30;;
44728;SDS011;30457;53.590;9.922;2023-03-11T09:27:18;3.15;;;2.15;;
44728;SDS011;30457;53.590;9.922;2023-03-11T09:31:45;3.72;;;2.42;;
44728;SDS011;30457;53.590;9.922;2023-03-11T09:36:12;6.57;;;2.70;;
44728;SDS011;30457;53.590;9.922;2023-03-11T09:45:15;1.58;;;1.48;;
44728;SDS011;30457;53.590;9.922;2023-03-11T09:54:15;4.10;;;2.70;;
44728;SDS011;30457;53.590;9.922;2023-03-11T10:03:15;4.50;;;2.35;;
44728;SDS011;30457;53.590;9.922;2023-03-11T10:07:59;5.18;;;2.80;;
44728;SDS011;30457;53.590;9.922;2023-03-11T10:17:35;4.27;;;2.20;;
44728;SDS011;30457;53.590;9.922;2023-03-11T10:26:50;2.40;;;1.45;;
44728;SDS011;30457;53.590;9.922;2023-03-11T10:36:00;2.60;;;1.85;;
44728;SDS011;30457;53.590;9.922;2023-03-11T10:40:35;1.70;;;1.38;;
44728;SDS011;30457;53.590;9.922;2023-03-11T10:45:03;5.35;;;2.00;;
44728;SDS011;30457;53.590;9.922;2023-03-11T10:49:35;3.83;;;2.00;;
44728;SDS011;30457;53.590;9.922;2023-03-11T10:54:01;7.28;;;2.00;;
44728;SDS011;30457;53.590;9.922;2023-03-11T10:58:28;3.40;;;2.20;;
44728;SDS011;30457;53.590;9.922;2023-03-11T11:02:55;5.72;;;2.42;;
44728;SDS011;30457;53.590;9.922;2023-03-11T11:07:32;4.80;;;1.73;;
44728;SDS011;30457;53.590;9.922;2023-03-11T11:16:30;4.80;;;2.70;;
44728;SDS011;30457;53.590;9.922;2023-03-11T11:21:08;5.20;;;2.08;;
44728;SDS011;30457;53.590;9.922;2023-03-11T11:25:56;2.67;;;1.80;;
44728;SDS011;30457;53.590;9.922;2023-03-11T11:30:23;3.17;;;1.70;;
44728;SDS011;30457;53.590;9.922;2023-03-11T11:34:57;5.57;;;1.85;;
44728;SDS011;30457;53.590;9.922;2023-03-11T11:39:29;6.30;;;2.45;;
44728;SDS011;30457;53.590;9.922;2023-03-11T11:44:04;5.57;;;1.98;;
44728;SDS011;30457;53.590;9.922;2023-03-11T11:48:48;2.00;;;1.50;;
44728;SDS011;30457;53.590;9.922;2023-03-11T11:53:46;1.67;;;1.15;;
44728;SDS011;30457;53.590;9.922;2023-03-11T11:58:13;1.73;;;0.98;;
44728;SDS011;30457;53.590;9.922;2023-03-11T12:02:51;1.98;;;0.80;;
44728;SDS011;30457;53.590;9.922;2023-03-11T12:07:32;3.03;;;0.90;;
44728;SDS011;30457;53.590;9.922;2023-03-11T12:12:20;3.03;;;0.95;;
44728;SDS011;30457;53.590;9.922;2023-03-11T12:16:57;2.50;;;0.68;;
44728;SDS011;30457;53.590;9.922;2023-03-11T12:26:04;4.93;;;1.45;;
44728;SDS011;30457;53.590;9.922;2023-03-11T12:30:40;5.45;;;0.90;;
44728;SDS011;30457;53.590;9.922;2023-03-11T12:35:13;5.90;;;0.82;;
44728;SDS011;30457;53.590;9.922;2023-03-11T12:39:45;3.78;;;0.95;;
44728;SDS011;30457;53.590;9.922;2023-03-11T12:53:42;2.08;;;0.55;;
44728;SDS011;30457;53.590;9.922;2023-03-11T12:58:44;5.93;;;0.85;;
44728;SDS011;30457;53.590;9.922;2023-03-11T13:03:15;3.00;;;1.15;;
44728;SDS011;30457;53.590;9.922;2023-03-11T13:08:13;3.78;;;0.90;;
44728;SDS011;30457;53.590;9.922;2023-03-11T13:12:48;3.00;;;0.70;;
44728;SDS011;30457;53.590;9.922;2023-03-11T13:17:18;1.58;;;1.15;;
44728;SDS011;30457;53.590;9.922;2023-03-11T13:21:49;0.88;;;0.60;;
44728;SDS011;30457;53.590;9.922;2023-03-11T13:26:16;3.05;;;0.80;;
44728;SDS011;30457;53.590;9.922;2023-03-11T13:31:37;3.60;;;0.80;;
44728;SDS011;30457;53.590;9.922;2023-03-11T13:44:53;3.90;;;0.85;;
44728;SDS011;30457;53.590;9.922;2023-03-11T13:49:34;7.70;;;1.02;;
44728;SDS011;30457;53.590;9.922;2023-03-11T13:58:49;1.15;;;0.40;;
44728;SDS011;30457;53.590;9.922;2023-03-11T14:03:14;3.20;;;0.50;;
44728;SDS011;30457;53.590;9.922;2023-03-11T14:07:45;4.40;;;0.75;;
44728;SDS011;30457;53.590;9.922;2023-03-11T14:12:11;3.05;;;1.00;;
44728;SDS011;30457;53.590;9.922;2023-03-11T14:16:37;2.05;;;0.65;;
44728;SDS011;30457;53.590;9.922;2023-03-11T14:21:15;1.13;;;0.68;;
44728;SDS011;30457;53.590;9.922;2023-03-11T14:25:43;2.17;;;1.05;;
44728;SDS011;30457;53.590;9.922;2023-03-11T14:30:15;1.23;;;0.70;;
44728;SDS011;30457;53.590;9.922;2023-03-11T14:34:44;2.65;;;0.50;;
44728;SDS011;30457;53.590;9.922;2023-03-11T14:39:21;1.60;;;0.60;;
44728;SDS011;30457;53.590;9.922;2023-03-11T14:43:56;4.32;;;0.60;;
44728;SDS011;30457;53.590;9.922;2023-03-11T14:48:24;3.70;;;0.68;;
44728;SDS011;30457;53.590;9.922;2023-03-11T14:53:01;3.83;;;0.90;;
44728;SDS011;30457;53.590;9.922;2023-03-11T14:57:36;3.67;;;0.90;;
44728;SDS011;30457;53.590;9.922;2023-03-11T15:02:25;3.10;;;0.80;;
44728;SDS011;30457;53.590;9.922;2023-03-11T15:07:02;3.53;;;0.60;;
44728;SDS011;30457;53.590;9.922;2023-03-11T15:11:28;3.40;;;0.70;;
44728;SDS011;30457;53.590;9.922;2023-03-11T15:15:57;5.20;;;0.70;;
44728;SDS011;30457;53.590;9.922;2023-03-11T15:20:25;3.95;;;0.80;;
44728;SDS011;30457;53.590;9.922;2023-03-11T15:24:58;1.05;;;0.70;;
44728;SDS011;30457;53.590;9.922;2023-03-11T15:29:25;3.22;;;1.02;;
44728;SDS011;30457;53.590;9.922;2023-03-11T15:33:52;4.18;;;0.85;;
44728;SDS011;30457;53.590;9.922;2023-03-11T15:38:19;1.90;;;0.60;;
44728;SDS011;30457;53.590;9.922;2023-03-11T15:42:45;2.50;;;0.60;;
44728;SDS011;30457;53.590;9.922;2023-03-11T15:47:15;4.57;;;1.10;;
44728;SDS011;30457;53.590;9.922;2023-03-11T15:51:42;0.95;;;0.75;;
44728;SDS011;30457;53.590;9.922;2023-03-11T15:56:09;1.25;;;0.88;;
44728;SDS011;30457;53.590;9.922;2023-03-11T16:00:41;2.08;;;0.63;;
44728;SDS011;30457;53.590;9.922;2023-03-11T16:05:17;2.20;;;1.00;;
44728;SDS011;30457;53.590;9.922;2023-03-11T16:09:44;1.90;;;1.00;;
44728;SDS011;30457;53.590;9.922;2023-03-11T16:14:16;2.55;;;0.77;;
44728;SDS011;30457;53.590;9.922;2023-03-11T16:18:44;2.95;;;0.90;;
44728;SDS011;30457;53.590;9.922;2023-03-11T16:23:15;3.63;;;0.80;;
44728;SDS011;30457;53.590;9.922;2023-03-11T16:27:44;3.28;;;1.00;;
44728;SDS011;30457;53.590;9.922;2023-03-11T16:32:09;3.90;;;1.25;;
44728;SDS011;30457;53.590;9.922;2023-03-11T16:36:35;3.17;;;0.73;;
44728;SDS011;30457;53.590;9.922;2023-03-11T16:41:01;5.25;;;1.08;;
44728;SDS011;30457;53.590;9.922;2023-03-11T16:45:27;3.85;;;1.67;;
44728;SDS011;30457;53.590;9.922;2023-03-11T16:49:53;2.22;;;0.80;;
44728;SDS011;30457;53.590;9.922;2023-03-11T16:54:18;1.20;;;0.90;;
44728;SDS011;30457;53.590;9.922;2023-03-11T16:58:44;2.35;;;1.02;;
44728;SDS011;30457;53.590;9.922;2023-03-11T17:03:12;4.22;;;1.15;;
44728;SDS011;30457;53.590;9.922;2023-03-11T17:07:40;1.35;;;1.10;;
44728;SDS011;30457;53.590;9.922;2023-03-11T17:12:05;1.20;;;1.00;;
44728;SDS011;30457;53.590;9.922;2023-03-11T17:16:33;3.35;;;1.30;;
44728;SDS011;30457;53.590;9.922;2023-03-11T17:20:59;4.22;;;1.30;;
44728;SDS011;30457;53.590;9.922;2023-03-11T17:25:28;1.75;;;0.90;;
44728;SDS011;30457;53.590;9.922;2023-03-11T17:29:54;6.82;;;1.60;;
44728;SDS011;30457;53.590;9.922;2023-03-11T17:34:19;8.02;;;1.90;;
44728;SDS011;30457;53.590;9.922;2023-03-11T17:38:46;3.65;;;2.13;;
44728;SDS011;30457;53.590;9.922;2023-03-11T17:43:11;3.13;;;1.65;;
44728;SDS011;30457;53.590;9.922;2023-03-11T17:47:37;4.50;;;1.40;;
44728;SDS011;30457;53.590;9.922;2023-03-11T17:52:02;2.45;;;1.70;;
44728;SDS011;30457;53.590;9.922;2023-03-11T17:56:28;3.88;;;1.60;;
44728;SDS011;30457;53.590;9.922;2023-03-11T18:00:54;7.78;;;2.30;;
44728;SDS011;30457;53.590;9.922;2023-03-11T18:05:20;2.92;;;1.83;;
44728;SDS011;30457;53.590;9.922;2023-03-11T18:09:46;6.35;;;2.08;;
44728;SDS011;30457;53.590;9.922;2023-03-11T18:14:15;3.95;;;1.60;;
44728;SDS011;30457;53.590;9.922;2023-03-11T18:18:41;4.38;;;1.60;;
44728;SDS011;30457;53.590;9.922;2023-03-11T18:23:07;2.17;;;1.23;;
44728;SDS011;30457;53.590;9.922;2023-03-11T18:27:32;1.67;;;1.15;;
44728;SDS011;30457;53.590;9.922;2023-03-11T18:31:58;2.28;;;1.30;;
44728;SDS011;30457;53.590;9.922;2023-03-11T18:36:25;5.63;;;1.35;;
44728;SDS011;30457;53.590;9.922;2023-03-11T18:40:57;1.40;;;1.02;;
44728;SDS011;30457;53.590;9.922;2023-03-11T18:45:23;3.03;;;1.33;;
44728;SDS011;30457;53.590;9.922;2023-03-11T18:49:49;2.05;;;1.13;;
44728;SDS011;30457;53.590;9.922;2023-03-11T18:54:14;2.47;;;1.02;;
44728;SDS011;30457;53.590;9.922;2023-03-11T18:58:40;1.65;;;0.93;;
44728;SDS011;30457;53.590;9.922;2023-03-11T19:03:08;1.80;;;1.10;;
44728;SDS011;30457;53.590;9.922;2023-03-11T19:07:34;1.55;;;1.15;;
44728;SDS011;30457;53.590;9.922;2023-03-11T19:12:00;1.40;;;0.80;;
44728;SDS011;30457;53.590;9.922;2023-03-11T19:16:26;3.72;;;1.50;;
44728;SDS011;30457;53.590;9.922;2023-03-11T19:20:58;1.75;;;1.40;;
44728;SDS011;30457;53.590;9.922;2023-03-11T19:25:25;2.80;;;1.27;;
44728;SDS011;30457;53.590;9.922;2023-03-11T19:29:51;0.88;;;0.70;;
44728;SDS011;30457;53.590;9.922;2023-03-11T19:34:17;2.72;;;1.00;;
44728;SDS011;30457;53.590;9.922;2023-03-11T19:38:42;2.35;;;1.23;;
44728;SDS011;30457;53.590;9.922;2023-03-11T19:43:08;2.05;;;1.08;;
44728;SDS011;30457;53.590;9.922;2023-03-11T19:47:34;2.53;;;1.20;;
44728;SDS011;30457;53.590;9.922;2023-03-11T19:52:00;1.92;;;1.15;;
44728;SDS011;30457;53.590;9.922;2023-03-11T19:56:26;1.95;;;1.10;;
44728;SDS011;30457;53.590;9.922;2023-03-11T20:00:52;1.35;;;1.25;;
44728;SDS011;30457;53.590;9.922;2023-03-11T20:05:18;4.50;;;1.30;;
44728;SDS011;30457;53.590;9.922;2023-03-11T20:09:43;6.20;;;1.17;;
44728;SDS011;30457;53.590;9.922;2023-03-11T20:14:09;1.55;;;0.80;;
44728;SDS011;30457;53.590;9.922;2023-03-11T20:18:35;1.67;;;1.20;;
44728;SDS011;30457;53.590;9.922;2023-03-11T20:23:00;2.28;;;1.15;;
44728;SDS011;30457;53.590;9.922;2023-03-11T20:27:26;1.55;;;1.13;;
44728;SDS011;30457;53.590;9.922;2023-03-11T20:31:52;2.15;;;1.00;;
44728;SDS011;30457;53.590;9.922;2023-03-11T20:36:20;2.00;;;1.10;;
44728;SDS011;30457;53.590;9.922;2023-03-11T20:40:53;3.00;;;1.00;;
44728;SDS011;30457;53.590;9.922;2023-03-11T20:45:20;3.65;;;1.23;;
44728;SDS011;30457;53.590;9.922;2023-03-11T20:49:45;4.63;;;1.27;;
44728;SDS011;30457;53.590;9.922;2023-03-11T20:54:11;3.03;;;1.40;;
44728;SDS011;30457;53.590;9.922;2023-03-11T20:58:36;8.23;;;1.20;;
44728;SDS011;30457;53.590;9.922;2023-03-11T21:03:02;6.32;;;1.45;;
44728;SDS011;30457;53.590;9.922;2023-03-11T21:07:28;2.47;;;1.10;;
44728;SDS011;30457;53.590;9.922;2023-03-11T21:11:53;2.28;;;1.63;;
44728;SDS011;30457;53.590;9.922;2023-03-11T21:16:19;3.10;;;1.40;;
44728;SDS011;30457;53.590;9.922;2023-03-11T21:20:45;2.17;;;1.48;;
44728;SDS011;30457;53.590;9.922;2023-03-11T21:25:11;5.63;;;1.38;;
44728;SDS011;30457;53.590;9.922;2023-03-11T21:29:36;6.72;;;1.58;;
44728;SDS011;30457;53.590;9.922;2023-03-11T21:34:02;2.50;;;1.50;;
44728;SDS011;30457;53.590;9.922;2023-03-11T21:38:27;6.38;;;1.42;;
44728;SDS011;30457;53.590;9.922;2023-03-11T21:42:53;1.85;;;1.25;;
44728;SDS011;30457;53.590;9.922;2023-03-11T21:47:19;1.08;;;0.98;;
44728;SDS011;30457;53.590;9.922;2023-03-11T21:51:44;3.33;;;1.30;;
44728;SDS011;30457;53.590;9.922;2023-03-11T21:56:10;1.90;;;1.35;;
44728;SDS011;30457;53.590;9.922;2023-03-11T22:00:37;2.90;;;1.27;;
44728;SDS011;30457;53.590;9.922;2023-03-11T22:05:03;2.67;;;1.27;;
44728;SDS011;30457;53.590;9.922;2023-03-11T22:09:28;3.58;;;1.33;;
44728;SDS011;30457;53.590;9.922;2023-03-11T22:13:54;1.50;;;1.20;;
44728;SDS011;30457;53.590;9.922;2023-03-11T22:18:21;1.30;;;1.17;;
44728;SDS011;30457;53.590;9.922;2023-03-11T22:22:46;4.13;;;1.65;;
44728;SDS011;30457;53.590;9.922;2023-03-11T22:27:12;1.80;;;1.30;;
44728;SDS011;30457;53.590;9.922;2023-03-11T22:31:38;3.53;;;1.55;;
44728;SDS011;30457;53.590;9.922;2023-03-11T22:36:03;7.03;;;1.50;;
44728;SDS011;30457;53.590;9.922;2023-03-11T22:40:30;7.38;;;2.33;;
44728;SDS011;30457;53.590;9.922;2023-03-11T22:44:55;1.95;;;1.40;;
44728;SDS011;30457;53.590;9.922;2023-03-11T22:49:21;6.22;;;1.88;;
44728;SDS011;30457;53.590;9.922;2023-03-11T22:53:47;1.65;;;1.50;;
44728;SDS011;30457;53.590;9.922;2023-03-11T22:58:12;6.90;;;2.15;;
44728;SDS011;30457;53.590;9.922;2023-03-11T23:02:38;3.50;;;1.65;;
44728;SDS011;30457;53.590;9.922;2023-03-11T23:07:04;2.65;;;2.00;;
44728;SDS011;30457;53.590;9.922;2023-03-11T23:11:29;2.50;;;1.67;;
44728;SDS011;30457;53.590;9.922;2023-03-11T23:15:55;4.15;;;1.77;;
44728;SDS011;30457;53.590;9.922;2023-03-11T23:20:20;2.17;;;1.98;;
44728;SDS011;30457;53.590;9.922;2023-03-11T23:24:46;2.22;;;2.03;;
44728;SDS011;30457;53.590;9.922;2023-03-11T23:29:12;6.15;;;2.33;;
44728;SDS011;30457;53.590;9.922;2023-03-11T23:33:38;5.68;;;2.20;;
44728;SDS011;30457;53.590;9.922;2023-03-11T23:38:05;3.53;;;1.80;;
44728;SDS011;30457;53.590;9.922;2023-03-11T23:42:31;2.60;;;1.92;;
44728;SDS011;30457;53.590;9.922;2023-03-11T23:46:58;9.98;;;2.28;;
44728;SDS011;30457;53.590;9.922;2023-03-11T23:51:24;3.83;;;2.30;;
44728;SDS011;30457;53.590;9.922;2023-03-11T23:55:49;3.03;;;2.47;;
